createdAt,value
2023-02-22T00:02:14.091Z,11.52
2023-02-22T00:04:42.234Z,11.53
2023-02-22T00:07:10.268Z,11.52
2023-02-22T00:09:38.371Z,11.49
2023-02-22T00:12:06.525Z,11.48
2023-02-22T00:14:34.537Z,11.49
2023-02-22T00:17:02.767Z,11.50
2023-02-22T00:19:31.314Z,11.50
2023-02-22T00:22:00.183Z,11.51
2023-02-22T00:24:29.519Z,11.51
2023-02-22T00:26:57.766Z,11.50
2023-02-22T00:29:26.437Z,11.48
2023-02-22T00:31:54.631Z,11.47
2023-02-22T00:34:24.304Z,11.46
2023-02-22T00:36:52.445Z,11.46
2023-02-22T00:39:20.737Z,11.46
2023-02-22T00:41:49.837Z,11.44
2023-02-22T00:44:18.054Z,11.43
2023-02-22T00:46:46.879Z,11.43
2023-02-22T00:49:16.949Z,11.42
2023-02-22T00:51:45.430Z,11.41
2023-02-22T00:54:14.481Z,11.40
2023-02-22T00:56:42.900Z,11.39
2023-02-22T00:59:11.086Z,11.38
2023-02-22T01:01:39.323Z,11.37
2023-02-22T01:04:07.352Z,11.37
2023-02-22T01:06:36.194Z,11.36
2023-02-22T01:09:04.437Z,11.36
2023-02-22T01:11:32.398Z,11.35
2023-02-22T01:14:02.383Z,11.36
2023-02-22T01:16:30.663Z,11.36
2023-02-22T01:19:01.435Z,11.35
2023-02-22T01:21:29.658Z,11.35
2023-02-22T01:23:57.669Z,11.34
2023-02-22T01:26:25.785Z,11.32
2023-02-22T01:28:54.587Z,11.31
2023-02-22T01:31:24.082Z,11.30
2023-02-22T01:33:52.286Z,11.30
2023-02-22T01:36:20.466Z,11.28
2023-02-22T01:38:48.522Z,11.27
2023-02-22T01:41:18.562Z,11.27
2023-02-22T01:43:46.821Z,11.26
2023-02-22T01:46:24.861Z,11.25
2023-02-22T01:48:59.316Z,11.24
2023-02-22T01:51:37.849Z,11.23
2023-02-22T01:54:15.339Z,11.22
2023-02-22T01:57:06.730Z,11.22
2023-02-22T01:59:38.091Z,11.20
2023-02-22T02:02:06.839Z,11.19
2023-02-22T02:04:36.447Z,11.18
2023-02-22T02:07:07.966Z,11.17
2023-02-22T02:09:43.586Z,11.16
2023-02-22T02:12:14.119Z,11.15
2023-02-22T02:14:44.046Z,11.16
2023-02-22T02:17:17.897Z,11.15
2023-02-22T02:19:59.330Z,11.14
2023-02-22T02:22:42.800Z,11.13
2023-02-22T02:25:30.937Z,11.13
2023-02-22T02:28:11.426Z,11.13
2023-02-22T02:30:45.418Z,11.13
2023-02-22T02:33:29.585Z,11.13
2023-02-22T02:36:04.640Z,11.12
2023-02-22T02:38:57.993Z,11.11
2023-02-22T02:41:33.785Z,11.10
2023-02-22T02:44:13.425Z,11.09
2023-02-22T02:47:29.078Z,11.10
2023-02-22T02:50:00.904Z,11.09
2023-02-22T02:52:31.986Z,11.08
2023-02-22T02:55:03.085Z,11.07
2023-02-22T02:57:31.170Z,11.05
2023-02-22T03:00:01.006Z,11.03
2023-02-22T03:02:49.718Z,11.02
2023-02-22T03:05:57.711Z,11.01
2023-02-22T03:08:31.830Z,11.02
2023-02-22T03:11:15.118Z,11.01
2023-02-22T03:14:09.185Z,11.00
2023-02-22T03:16:52.682Z,10.99
2023-02-22T03:19:35.873Z,10.98
2023-02-22T03:22:25.069Z,10.98
2023-02-22T03:24:56.067Z,10.98
2023-02-22T03:27:46.557Z,10.97
2023-02-22T03:30:29.052Z,10.96
2023-02-22T03:33:02.143Z,10.94
2023-02-22T03:35:34.867Z,10.93
2023-02-22T03:38:06.208Z,10.94
2023-02-22T03:40:39.551Z,10.92
2023-02-22T03:43:11.941Z,10.91
2023-02-22T03:45:44.974Z,10.89
2023-02-22T03:48:23.504Z,10.89
2023-02-22T03:50:52.472Z,10.90
2023-02-22T03:53:23.280Z,10.90
2023-02-22T03:55:54.258Z,10.89
2023-02-22T03:58:24.501Z,10.88
2023-02-22T04:00:53.411Z,10.87
2023-02-22T04:03:23.122Z,10.88
2023-02-22T04:05:52.210Z,10.87
2023-02-22T04:08:20.991Z,10.88
2023-02-22T04:10:49.663Z,10.87
2023-02-22T04:13:22.019Z,10.85
2023-02-22T04:15:51.963Z,10.84
2023-02-22T04:18:20.195Z,10.83
2023-02-22T04:20:49.736Z,10.83
2023-02-22T04:23:30.017Z,10.83
2023-02-22T04:25:59.480Z,10.84
2023-02-22T04:28:27.556Z,10.83
2023-02-22T04:31:06.201Z,10.82
2023-02-22T04:33:34.513Z,10.81
2023-02-22T04:36:02.794Z,10.80
2023-02-22T04:38:34.035Z,10.81
2023-02-22T04:41:02.407Z,10.81
2023-02-22T04:43:30.687Z,10.80
2023-02-22T04:46:13.152Z,10.78
2023-02-22T04:48:41.498Z,10.77
2023-02-22T04:51:10.023Z,10.76
2023-02-22T04:53:40.612Z,10.74
2023-02-22T04:56:08.799Z,10.74
2023-02-22T04:58:36.977Z,10.74
2023-02-22T05:01:05.175Z,10.72
2023-02-22T05:03:33.473Z,10.71
2023-02-22T05:06:01.706Z,10.71
2023-02-22T05:08:29.778Z,10.72
2023-02-22T05:10:57.850Z,10.72
2023-02-22T05:13:26.102Z,10.72
2023-02-22T05:15:54.500Z,10.71
2023-02-22T05:18:22.797Z,10.70
2023-02-22T05:20:50.785Z,10.70
2023-02-22T05:23:18.772Z,10.70
2023-02-22T05:25:46.961Z,10.69
2023-02-22T05:28:16.050Z,10.67
2023-02-22T05:30:44.251Z,10.67
2023-02-22T05:33:13.165Z,10.68
2023-02-22T05:35:41.133Z,10.67
2023-02-22T05:38:15.014Z,10.64
2023-02-22T05:40:43.243Z,10.65
2023-02-22T05:43:11.367Z,10.63
2023-02-22T05:45:39.456Z,10.63
2023-02-22T05:48:07.986Z,10.62
2023-02-22T05:50:35.980Z,10.62
2023-02-22T05:53:05.713Z,10.62
2023-02-22T05:55:33.622Z,10.61
2023-02-22T05:58:01.978Z,10.60
2023-02-22T06:00:31.516Z,10.59
2023-02-22T06:03:09.333Z,10.59
2023-02-22T06:05:38.155Z,10.58
2023-02-22T06:08:07.812Z,10.56
2023-02-22T06:10:36.056Z,10.56
2023-02-22T06:13:06.094Z,10.54
2023-02-22T06:15:34.317Z,10.54
2023-02-22T06:18:02.900Z,10.55
2023-02-22T06:20:31.425Z,10.54
2023-02-22T06:22:59.562Z,10.55
2023-02-22T06:25:31.389Z,10.56
2023-02-22T06:28:01.314Z,10.53
2023-02-22T06:30:30.725Z,10.52
2023-02-22T06:32:58.826Z,10.51
2023-02-22T06:35:26.868Z,10.50
2023-02-22T06:37:54.960Z,10.51
2023-02-22T06:40:23.056Z,10.52
2023-02-22T06:42:51.176Z,10.53
2023-02-22T06:45:19.373Z,10.53
2023-02-22T06:47:47.960Z,10.53
2023-02-22T06:50:25.165Z,10.51
2023-02-22T06:52:53.277Z,10.49
2023-02-22T06:55:24.226Z,10.49
2023-02-22T06:57:52.930Z,10.48
2023-02-22T07:00:23.411Z,10.48
2023-02-22T07:02:52.753Z,10.47
2023-02-22T07:05:22.926Z,10.46
2023-02-22T07:07:55.196Z,10.46
2023-02-22T07:10:25.258Z,10.45
2023-02-22T07:12:53.858Z,10.47
2023-02-22T07:15:27.999Z,10.47
2023-02-22T07:17:56.803Z,10.46
2023-02-22T07:20:26.520Z,10.46
2023-02-22T07:22:54.958Z,10.47
2023-02-22T07:25:23.819Z,10.47
2023-02-22T07:27:53.081Z,10.49
2023-02-22T07:30:30.757Z,10.49
2023-02-22T07:33:01.163Z,10.48
2023-02-22T07:35:32.060Z,10.49
2023-02-22T07:38:00.165Z,10.49
2023-02-22T07:40:29.236Z,10.49
2023-02-22T07:43:07.205Z,10.50
2023-02-22T07:45:36.170Z,10.51
2023-02-22T07:48:05.819Z,10.52
2023-02-22T07:50:34.865Z,10.53
2023-02-22T07:53:05.662Z,10.53
2023-02-22T07:55:34.433Z,10.54
2023-02-22T07:58:04.843Z,10.54
2023-02-22T08:00:39.299Z,10.53
2023-02-22T08:03:10.170Z,10.55
2023-02-22T08:05:40.463Z,10.56
2023-02-22T08:08:08.588Z,10.57
2023-02-22T08:10:37.116Z,10.59
2023-02-22T08:13:06.294Z,10.60
2023-02-22T08:15:37.201Z,10.60
2023-02-22T08:18:11.381Z,10.61
2023-02-22T08:20:41.036Z,10.62
2023-02-22T08:23:10.577Z,10.62
2023-02-22T08:25:38.747Z,10.65
2023-02-22T08:28:10.448Z,10.67
2023-02-22T08:30:40.666Z,10.69
2023-02-22T08:33:11.049Z,10.71
2023-02-22T08:35:40.977Z,10.71
2023-02-22T08:38:18.208Z,10.70
2023-02-22T08:40:48.462Z,10.69
2023-02-22T08:43:17.299Z,10.70
2023-02-22T08:45:46.407Z,10.72
2023-02-22T08:48:16.023Z,10.74
2023-02-22T08:50:44.587Z,10.75
2023-02-22T08:53:14.846Z,10.75
2023-02-22T08:55:43.099Z,10.76
2023-02-22T08:58:12.407Z,10.77
2023-02-22T09:00:41.785Z,10.76
2023-02-22T09:03:14.125Z,10.76
2023-02-22T09:05:44.314Z,10.75
2023-02-22T09:08:12.831Z,10.75
2023-02-22T09:10:40.925Z,10.76
2023-02-22T09:13:09.018Z,10.77
2023-02-22T09:15:37.840Z,10.79
2023-02-22T09:18:11.093Z,10.81
2023-02-22T09:20:39.177Z,10.80
2023-02-22T09:23:09.884Z,10.79
2023-02-22T09:25:41.004Z,10.79
2023-02-22T09:28:09.494Z,10.81
2023-02-22T09:30:37.959Z,10.82
2023-02-22T09:33:11.192Z,10.83
2023-02-22T09:35:46.432Z,10.87
2023-02-22T09:38:17.874Z,10.90
2023-02-22T09:41:01.275Z,10.92
2023-02-22T09:43:40.656Z,10.95
2023-02-22T09:46:38.524Z,10.98
2023-02-22T09:49:16.213Z,11.01
2023-02-22T09:52:14.841Z,11.05
2023-02-22T09:54:52.145Z,11.08
2023-02-22T09:57:29.053Z,11.10
2023-02-22T10:00:13.864Z,11.12
2023-02-22T10:03:09.794Z,11.15
2023-02-22T10:05:41.941Z,11.19
2023-02-22T10:08:16.187Z,11.19
2023-02-22T10:10:46.234Z,11.20
2023-02-22T10:13:17.420Z,11.23
2023-02-22T10:15:59.350Z,11.26
2023-02-22T10:18:36.492Z,11.29
2023-02-22T10:21:14.476Z,11.31
2023-02-22T10:24:16.382Z,11.33
2023-02-22T10:26:46.916Z,11.38
2023-02-22T10:29:23.396Z,11.41
2023-02-22T10:31:57.555Z,11.45
2023-02-22T10:34:28.497Z,11.49
2023-02-22T10:37:24.284Z,11.54
2023-02-22T10:39:58.732Z,11.59
2023-02-22T10:42:28.748Z,11.63
2023-02-22T10:44:56.750Z,11.66
2023-02-22T10:47:25.406Z,11.68
2023-02-22T10:49:57.622Z,11.72
2023-02-22T10:52:29.710Z,11.76
2023-02-22T10:55:14.046Z,11.80
2023-02-22T10:57:46.538Z,11.84
2023-02-22T11:00:14.686Z,11.86
2023-02-22T11:02:53.648Z,11.89
2023-02-22T11:05:38.065Z,11.92
2023-02-22T11:08:21.147Z,11.96
2023-02-22T11:10:51.647Z,11.99
2023-02-22T11:13:39.652Z,12.03
2023-02-22T11:16:32.735Z,12.07
2023-02-22T11:19:25.466Z,12.09
2023-02-22T11:21:58.500Z,12.12
2023-02-22T11:24:32.386Z,12.15
2023-02-22T11:27:07.732Z,12.18
2023-02-22T11:29:37.373Z,12.21
2023-02-22T11:32:22.641Z,12.23
2023-02-22T11:35:03.581Z,12.25
2023-02-22T11:37:37.448Z,12.28
2023-02-22T11:40:13.140Z,12.31
2023-02-22T11:42:41.187Z,12.34
2023-02-22T11:45:12.846Z,12.37
2023-02-22T11:47:56.292Z,12.40
2023-02-22T11:50:28.272Z,12.42
2023-02-22T11:53:01.707Z,12.45
2023-02-22T11:55:45.092Z,12.48
2023-02-22T11:58:48.503Z,12.51
2023-02-22T12:01:21.609Z,12.52
2023-02-22T12:04:21.118Z,12.55
2023-02-22T12:07:26.582Z,12.56
2023-02-22T12:10:18.488Z,12.58
2023-02-22T12:12:55.633Z,12.60
2023-02-22T12:15:34.669Z,12.61
2023-02-22T12:18:24.710Z,12.61
2023-02-22T12:21:01.695Z,12.62
2023-02-22T12:23:45.017Z,12.63
2023-02-22T12:26:24.737Z,12.65
2023-02-22T12:29:00.643Z,12.66
2023-02-22T12:31:40.935Z,12.68
2023-02-22T12:34:27.761Z,12.69
2023-02-22T12:37:09.975Z,12.70
2023-02-22T12:39:52.367Z,12.70
2023-02-22T12:42:30.266Z,12.72
2023-02-22T12:45:08.371Z,12.75
2023-02-22T12:47:45.650Z,12.78
2023-02-22T12:50:23.557Z,12.79
2023-02-22T12:53:04.303Z,12.80
2023-02-22T12:55:49.846Z,12.79
2023-02-22T12:58:21.911Z,12.79
2023-02-22T13:01:18.041Z,12.79
2023-02-22T13:03:46.668Z,12.80
2023-02-22T13:06:26.453Z,12.82
2023-02-22T13:09:13.008Z,12.85
2023-02-22T13:11:49.054Z,12.88
2023-02-22T13:14:42.565Z,12.91
2023-02-22T13:17:25.869Z,12.91
2023-02-22T13:20:06.130Z,12.91
2023-02-22T13:22:43.090Z,12.92
2023-02-22T13:25:18.943Z,12.94
2023-02-22T13:28:02.445Z,12.96
2023-02-22T13:31:12.644Z,12.99
2023-02-22T13:34:03.206Z,13.01
2023-02-22T13:37:02.226Z,13.04
2023-02-22T13:40:03.184Z,13.07
2023-02-22T13:42:43.913Z,13.07
2023-02-22T13:45:27.264Z,13.10
2023-02-22T13:48:21.778Z,13.11
2023-02-22T13:51:08.255Z,13.14
2023-02-22T13:53:54.449Z,13.18
2023-02-22T13:56:25.155Z,13.21
2023-02-22T13:58:57.494Z,13.23
2023-02-22T14:01:55.159Z,13.25
2023-02-22T14:04:29.404Z,13.28
2023-02-22T14:07:04.295Z,13.31
2023-02-22T14:09:50.583Z,13.34
2023-02-22T14:12:30.961Z,13.36
2023-02-22T14:15:27.763Z,13.37
2023-02-22T14:17:56.871Z,13.40
2023-02-22T14:20:36.960Z,13.42
2023-02-22T14:23:23.694Z,13.40
2023-02-22T14:25:52.103Z,13.40
2023-02-22T14:28:54.646Z,13.39
2023-02-22T14:31:38.908Z,13.39
2023-02-22T14:34:15.377Z,13.38
2023-02-22T14:36:55.535Z,13.36
2023-02-22T14:39:33.060Z,13.35
2023-02-22T14:42:25.630Z,13.33
2023-02-22T14:45:09.486Z,13.32
2023-02-22T14:48:01.290Z,13.29
2023-02-22T14:50:43.896Z,13.26
2023-02-22T14:53:40.976Z,13.24
2023-02-22T14:56:17.808Z,13.23
2023-02-22T14:58:55.248Z,13.21
2023-02-22T15:01:44.478Z,13.19
2023-02-22T15:04:26.414Z,13.18
2023-02-22T15:06:56.181Z,13.15
2023-02-22T15:09:28.863Z,13.14
2023-02-22T15:12:03.434Z,13.12
2023-02-22T15:14:38.141Z,13.09
2023-02-22T15:17:17.304Z,13.07
2023-02-22T15:19:48.655Z,13.05
2023-02-22T15:22:26.665Z,13.03
2023-02-22T15:25:00.150Z,13.02
2023-02-22T15:27:29.240Z,13.01
2023-02-22T15:30:04.793Z,13.00
2023-02-22T15:32:53.293Z,12.98
2023-02-22T15:35:33.991Z,12.98
2023-02-22T15:38:03.731Z,12.96
2023-02-22T15:40:33.552Z,12.95
2023-02-22T15:43:08.977Z,12.94
2023-02-22T15:45:43.137Z,12.93
2023-02-22T15:48:12.161Z,12.92
2023-02-22T15:50:40.144Z,12.92
2023-02-22T15:53:24.390Z,12.90
2023-02-22T15:55:58.850Z,12.87
2023-02-22T15:58:31.577Z,12.84
2023-02-22T16:01:11.055Z,12.79
2023-02-22T16:03:51.440Z,12.73
2023-02-22T16:06:38.253Z,12.69
2023-02-22T16:09:26.560Z,12.65
2023-02-22T16:12:22.453Z,12.62
2023-02-22T16:14:52.387Z,12.58
2023-02-22T16:18:01.501Z,12.56
2023-02-22T16:20:32.603Z,12.52
2023-02-22T16:23:00.891Z,12.48
2023-02-22T16:25:35.591Z,12.46
2023-02-22T16:28:25.881Z,12.42
2023-02-22T16:30:57.815Z,12.39
2023-02-22T16:33:29.801Z,12.37
2023-02-22T16:35:57.913Z,12.33
2023-02-22T16:38:27.601Z,12.30
2023-02-22T16:40:58.471Z,12.28
2023-02-22T16:43:32.854Z,12.25
2023-02-22T16:46:02.846Z,12.23
2023-02-22T16:48:33.309Z,12.21
2023-02-22T16:51:14.887Z,12.19
2023-02-22T16:53:43.283Z,12.17
2023-02-22T16:56:16.372Z,12.13
2023-02-22T16:58:46.960Z,12.10
2023-02-22T17:01:15.127Z,12.07
2023-02-22T17:03:43.236Z,12.04
2023-02-22T17:06:11.674Z,12.01
2023-02-22T17:08:41.526Z,11.98
2023-02-22T17:11:12.921Z,11.97
2023-02-22T17:13:41.032Z,11.94
2023-02-22T17:16:14.718Z,11.93
2023-02-22T17:18:42.846Z,11.90
2023-02-22T17:21:11.552Z,11.87
2023-02-22T17:23:39.916Z,11.84
2023-02-22T17:26:07.931Z,11.80
2023-02-22T17:28:36.041Z,11.78
2023-02-22T17:31:04.136Z,11.77
2023-02-22T17:33:34.413Z,11.75
2023-02-22T17:36:04.980Z,11.71
2023-02-22T17:38:34.549Z,11.68
2023-02-22T17:41:03.449Z,11.65
2023-02-22T17:43:31.536Z,11.63
2023-02-22T17:46:00.004Z,11.59
2023-02-22T17:48:28.169Z,11.56
2023-02-22T17:50:56.414Z,11.54
2023-02-22T17:53:25.506Z,11.51
2023-02-22T17:55:53.654Z,11.49
2023-02-22T17:58:22.790Z,11.47
2023-02-22T18:00:51.259Z,11.43
2023-02-22T18:03:25.271Z,11.40
2023-02-22T18:06:00.053Z,11.38
2023-02-22T18:08:32.214Z,11.37
2023-02-22T18:11:05.217Z,11.34
2023-02-22T18:13:33.316Z,11.32
2023-02-22T18:16:04.959Z,11.29
2023-02-22T18:18:34.024Z,11.27
2023-02-22T18:21:03.775Z,11.24
2023-02-22T18:23:33.175Z,11.21
2023-02-22T18:26:11.493Z,11.19
2023-02-22T18:28:40.003Z,11.15
2023-02-22T18:31:14.591Z,11.11
2023-02-22T18:33:44.615Z,11.09
2023-02-22T18:36:14.201Z,11.03
2023-02-22T18:38:43.544Z,11.00
2023-02-22T18:41:14.728Z,10.97
2023-02-22T18:43:43.555Z,10.92
2023-02-22T18:46:18.250Z,10.87
2023-02-22T18:48:48.162Z,10.83
2023-02-22T18:51:17.651Z,10.77
2023-02-22T18:53:47.734Z,10.74
2023-02-22T18:56:21.898Z,10.70
2023-02-22T18:58:54.431Z,10.67
2023-02-22T19:01:23.538Z,10.64
2023-02-22T19:03:52.108Z,10.61
2023-02-22T19:06:23.335Z,10.56
2023-02-22T19:08:52.146Z,10.53
2023-02-22T19:11:23.530Z,10.47
2023-02-22T19:13:55.224Z,10.43
2023-02-22T19:16:25.521Z,10.38
2023-02-22T19:18:57.510Z,10.36
2023-02-22T19:21:30.955Z,10.32
2023-02-22T19:24:01.992Z,10.30
2023-02-22T19:26:30.908Z,10.28
2023-02-22T19:29:04.970Z,10.25
2023-02-22T19:31:34.093Z,10.23
2023-02-22T19:34:10.809Z,10.20
2023-02-22T19:36:40.862Z,10.16
2023-02-22T19:39:08.976Z,10.14
2023-02-22T19:41:38.239Z,10.12
2023-02-22T19:44:07.265Z,10.09
2023-02-22T19:46:36.872Z,10.06
2023-02-22T19:49:06.494Z,10.03
2023-02-22T19:51:34.942Z,10.01
2023-02-22T19:54:08.554Z,9.99
2023-02-22T19:56:37.413Z,9.96
2023-02-22T19:59:09.641Z,9.93
2023-02-22T20:01:38.492Z,9.92
2023-02-22T20:04:09.771Z,9.89
2023-02-22T20:06:42.823Z,9.87
2023-02-22T20:09:19.953Z,9.86
2023-02-22T20:11:49.524Z,9.85
2023-02-22T20:14:30.656Z,9.84
2023-02-22T20:17:01.188Z,9.81
2023-02-22T20:19:30.066Z,9.79
2023-02-22T20:22:01.985Z,9.77
2023-02-22T20:24:30.481Z,9.76
2023-02-22T20:26:58.804Z,9.74
2023-02-22T20:29:30.142Z,9.73
2023-02-22T20:32:00.716Z,9.71
2023-02-22T20:34:33.762Z,9.69
2023-02-22T20:37:03.275Z,9.68
2023-02-22T20:39:31.954Z,9.65
2023-02-22T20:42:00.693Z,9.64
2023-02-22T20:44:29.165Z,9.62
2023-02-22T20:46:57.360Z,9.60
2023-02-22T20:49:27.439Z,9.58
2023-02-22T20:51:55.653Z,9.55
2023-02-22T20:54:24.208Z,9.54
2023-02-22T20:56:53.169Z,9.52
2023-02-22T20:59:22.015Z,9.50
2023-02-22T21:01:53.184Z,9.48
2023-02-22T21:04:24.323Z,9.46
2023-02-22T21:06:53.270Z,9.43
2023-02-22T21:09:21.855Z,9.41
2023-02-22T21:11:50.562Z,9.38
2023-02-22T21:14:18.959Z,9.37
2023-02-22T21:16:49.937Z,9.35
2023-02-22T21:19:26.043Z,9.33
2023-02-22T21:21:57.000Z,9.30
2023-02-22T21:24:27.774Z,9.28
2023-02-22T21:26:59.195Z,9.27
2023-02-22T21:29:30.594Z,9.24
2023-02-22T21:32:00.784Z,9.22
2023-02-22T21:34:29.912Z,9.21
2023-02-22T21:36:58.251Z,9.20
2023-02-22T21:39:28.769Z,9.19
2023-02-22T21:42:01.107Z,9.18
2023-02-22T21:44:30.195Z,9.17
2023-02-22T21:46:58.792Z,9.15
2023-02-22T21:49:29.015Z,9.12
2023-02-22T21:51:57.809Z,9.10
2023-02-22T21:54:28.306Z,9.09
2023-02-22T21:56:57.875Z,9.07
2023-02-22T21:59:26.698Z,9.05
2023-02-22T22:01:56.712Z,9.03
2023-02-22T22:04:30.733Z,9.02
2023-02-22T22:07:01.984Z,9.01
2023-02-22T22:09:37.677Z,8.99
2023-02-22T22:12:10.349Z,8.96
2023-02-22T22:14:40.448Z,8.94
2023-02-22T22:17:09.642Z,8.92
2023-02-22T22:19:44.136Z,8.91
2023-02-22T22:22:12.966Z,8.89
2023-02-22T22:24:46.044Z,8.88
2023-02-22T22:27:14.309Z,8.87
2023-02-22T22:29:44.098Z,8.85
2023-02-22T22:32:12.921Z,8.84
2023-02-22T22:34:42.623Z,8.82
2023-02-22T22:37:11.131Z,8.80
2023-02-22T22:39:39.881Z,8.78
2023-02-22T22:42:09.477Z,8.77
2023-02-22T22:44:42.433Z,8.75
2023-02-22T22:47:13.887Z,8.74
2023-02-22T22:49:43.118Z,8.73
2023-02-22T22:52:14.172Z,8.70
2023-02-22T22:54:43.870Z,8.69
2023-02-22T22:57:12.422Z,8.68
2023-02-22T22:59:42.067Z,8.67
2023-02-22T23:02:11.516Z,8.65
2023-02-22T23:04:40.128Z,8.64
2023-02-22T23:07:08.872Z,8.62
2023-02-22T23:09:39.623Z,8.60
2023-02-22T23:12:16.961Z,8.58
2023-02-22T23:14:45.806Z,8.56
2023-02-22T23:17:26.909Z,8.55
2023-02-22T23:19:56.259Z,8.53
2023-02-22T23:22:24.348Z,8.51
2023-02-22T23:24:52.653Z,8.49
2023-02-22T23:27:20.934Z,8.47
2023-02-22T23:29:49.695Z,8.45
2023-02-22T23:32:19.191Z,8.44
2023-02-22T23:34:49.810Z,8.43
2023-02-22T23:37:20.952Z,8.41
2023-02-22T23:39:51.178Z,8.39
2023-02-22T23:42:19.577Z,8.38
2023-02-22T23:44:48.293Z,8.36
2023-02-22T23:47:16.632Z,8.33
2023-02-22T23:49:49.463Z,8.31
2023-02-22T23:52:24.521Z,8.28
2023-02-22T23:54:54.212Z,8.27
2023-02-22T23:57:24.382Z,8.25
2023-02-22T23:59:52.642Z,8.23
